createdAt,value
2022-11-22T00:13:27.233Z,7
2022-11-22T00:18:07.534Z,7
2022-11-22T01:04:55.546Z,8
2022-11-22T02:13:08.504Z,7
2022-11-22T02:13:18.960Z,7
2022-11-22T02:13:26.361Z,7
2022-11-22T04:20:00.181Z,2
2022-11-22T05:21:36.550Z,1
2022-11-22T05:48:30.358Z,1
2022-11-22T06:41:09.738Z,1
2022-11-22T06:41:17.008Z,1
2022-11-22T07:14:08.092Z,2
2022-11-22T10:35:01.558Z,2
2022-11-22T10:40:05.597Z,2
2022-11-22T10:44:59.830Z,2
2022-11-22T10:49:59.723Z,2
2022-11-22T10:54:59.960Z,2
2022-11-22T11:00:04.969Z,2
2022-11-22T11:05:03.006Z,2
2022-11-22T11:10:13.709Z,2
2022-11-22T11:15:03.006Z,2
2022-11-22T11:20:03.474Z,2
2022-11-22T11:24:59.902Z,2
2022-11-22T11:29:59.777Z,2
2022-11-22T11:35:03.365Z,2
2022-11-22T11:39:59.816Z,3
2022-11-22T11:44:59.622Z,3
2022-11-22T11:50:00.413Z,3
2022-11-22T11:55:01.232Z,3
2022-11-22T11:59:59.939Z,3
2022-11-22T12:04:59.782Z,3
2022-11-22T12:10:00.002Z,3
2022-11-22T12:15:10.839Z,3
2022-11-22T12:19:59.763Z,3
2022-11-22T12:25:24.729Z,3
2022-11-22T12:30:00.818Z,3
2022-11-22T12:34:59.749Z,3
2022-11-22T12:39:59.878Z,3
2022-11-22T12:45:02.164Z,3
2022-11-22T12:49:59.918Z,3
2022-11-22T12:54:59.695Z,3
2022-11-22T13:00:03.132Z,2
2022-11-22T13:05:02.356Z,2
2022-11-22T13:09:59.769Z,2
2022-11-22T13:15:00.448Z,2
2022-11-22T13:19:59.873Z,2
2022-11-22T13:24:59.869Z,2
2022-11-22T13:30:00.838Z,2
2022-11-22T13:34:59.672Z,2
2022-11-22T13:39:59.895Z,2
2022-11-22T13:45:07.175Z,2
2022-11-22T13:49:59.572Z,2
2022-11-22T13:54:59.719Z,1
2022-11-22T13:59:59.528Z,1
2022-11-22T14:05:00.452Z,1
2022-11-22T14:10:00.632Z,1
2022-11-22T14:14:59.660Z,1
2022-11-22T14:19:59.799Z,1
2022-11-22T14:30:01.977Z,1
2022-11-22T14:35:26.341Z,1
2022-11-22T14:39:59.316Z,1
2022-11-22T14:45:00.204Z,1
2022-11-22T14:49:59.653Z,1
2022-11-22T14:54:59.533Z,1
2022-11-22T15:00:06.146Z,1
2022-11-22T15:09:14.915Z,1
2022-11-22T15:09:59.548Z,1
2022-11-22T16:00:00.001Z,1
2022-11-22T16:06:09.245Z,1
2022-11-22T16:09:59.662Z,1
2022-11-22T16:14:59.296Z,2
2022-11-22T16:20:23.928Z,2
2022-11-22T16:25:29.644Z,2
2022-11-22T16:29:59.484Z,2
2022-11-22T16:35:27.465Z,2
2022-11-22T16:39:59.430Z,2
2022-11-22T16:45:03.772Z,2
2022-11-22T16:49:59.166Z,2
2022-11-22T16:54:59.294Z,3
2022-11-22T16:59:59.561Z,3
2022-11-22T17:04:59.352Z,3
2022-11-22T17:09:59.161Z,3
2022-11-22T17:14:59.220Z,3
2022-11-22T17:19:59.201Z,3
2022-11-22T17:24:59.215Z,4
2022-11-22T17:29:59.564Z,4
2022-11-22T17:34:59.244Z,4
2022-11-22T17:39:59.141Z,4
2022-11-22T17:44:59.697Z,4
2022-11-22T17:49:59.394Z,4
2022-11-22T17:55:04.694Z,4
2022-11-22T17:59:59.289Z,5
2022-11-22T18:04:59.426Z,5
2022-11-22T18:09:59.280Z,5
2022-11-22T18:14:59.374Z,5
2022-11-22T18:19:59.335Z,6
2022-11-22T18:24:59.469Z,6
2022-11-22T18:29:59.648Z,6
2022-11-22T18:35:00.631Z,6
2022-11-22T18:40:00.419Z,6
2022-11-22T18:45:00.559Z,6
2022-11-22T18:50:00.564Z,6
2022-11-22T18:55:00.374Z,6
2022-11-22T19:00:00.680Z,6
2022-11-22T19:05:00.443Z,6
2022-11-22T19:10:00.355Z,6
2022-11-22T19:15:00.392Z,6
2022-11-22T19:20:00.577Z,6
2022-11-22T19:25:00.519Z,6
2022-11-22T19:30:00.490Z,6
2022-11-22T19:35:00.376Z,6
2022-11-22T19:40:00.392Z,6
2022-11-22T19:45:00.518Z,6
2022-11-22T19:50:00.194Z,7
2022-11-22T19:55:00.339Z,7
2022-11-22T20:00:00.525Z,7
2022-11-22T20:05:00.399Z,7
2022-11-22T20:10:00.427Z,8
2022-11-22T20:15:00.338Z,8
2022-11-22T20:20:00.351Z,8
2022-11-22T20:25:00.493Z,8
2022-11-22T20:30:00.481Z,8
2022-11-22T20:35:00.310Z,8
2022-11-22T20:40:00.303Z,8
2022-11-22T20:45:00.740Z,8
2022-11-22T20:50:00.445Z,8
2022-11-22T20:55:04.841Z,8
2022-11-22T21:00:00.331Z,8
2022-11-22T21:05:00.362Z,8
2022-11-22T21:10:00.575Z,8
2022-11-22T21:15:00.569Z,8
2022-11-22T21:20:00.425Z,8
2022-11-22T21:25:00.052Z,9
2022-11-22T21:30:00.389Z,9
2022-11-22T21:35:00.346Z,11
2022-11-22T21:40:00.369Z,10
2022-11-22T21:45:00.074Z,11
2022-11-22T21:50:00.446Z,10
2022-11-22T21:55:00.447Z,11
2022-11-22T22:00:00.431Z,11
2022-11-22T22:05:00.014Z,10
2022-11-22T22:10:00.040Z,10
2022-11-22T22:15:00.378Z,10
2022-11-22T22:20:00.657Z,10
2022-11-22T22:25:00.353Z,10
2022-11-22T22:30:00.150Z,10
2022-11-22T22:35:00.417Z,10
2022-11-22T22:40:00.417Z,10
2022-11-22T22:45:00.346Z,10
2022-11-22T22:50:00.039Z,10
2022-11-22T22:55:00.210Z,10
2022-11-22T23:00:00.148Z,10
2022-11-22T23:05:00.023Z,10
2022-11-22T23:10:00.403Z,10
2022-11-22T23:20:01.865Z,11
2022-11-22T23:24:59.913Z,11
2022-11-22T23:29:59.727Z,11
2022-11-22T23:34:59.820Z,11
2022-11-22T23:39:59.849Z,11
2022-11-22T23:44:59.632Z,12
2022-11-22T23:49:59.610Z,12
2022-11-22T23:54:59.582Z,12
2022-11-22T23:59:59.835Z,12
